Time;durP1;ratioP1;P1;durP2;ratioP2;P2;SDS_P1;SDS_P2;PMS_P1;PMS_P2;Temp;Humidity;BMP_temperature;BMP_pressure;BME280_temperature;BME280_humidity;BME280_pressure;Samples;Min_cycle;Max_cycle;Signal;HPM_P1;HPM_P2
2022/01/25 00:28:43;;;;;;;52.60;18.73;;;;;;;3.26;70.00;101607.53;5034932;28;20041;-82
2022/01/25 00:31:13;;;;;;;47.58;17.90;;;;;;;3.26;70.13;101605.75;5037157;28;20413;-82
2022/01/25 00:33:51;;;;;;;47.05;17.35;;;;;;;3.22;70.08;101601.50;5021451;28;20686;-82
2022/01/25 00:36:20;;;;;;;47.00;16.33;;;;;;;3.26;70.00;101602.28;5041067;28;20483;-82
2022/01/25 00:38:47;;;;;;;44.38;15.40;;;;;;;3.28;70.09;101597.81;5050942;28;20045;-82
2022/01/25 00:41:15;;;;;;;37.95;14.35;;;;;;;3.28;69.98;101597.81;5047089;28;20048;-81
2022/01/25 00:43:42;;;;;;;43.60;15.90;;;;;;;3.26;70.12;101597.88;5055833;28;20131;-82
2022/01/25 00:46:11;;;;;;;36.08;14.98;;;;;;;3.28;70.18;101591.72;5034232;28;20041;-82
2022/01/25 00:52:04;;;;;;;42.50;15.93;;;;;;;3.24;69.70;101594.44;5068920;28;20400;-82
2022/01/25 00:54:13;;;;;;;38.95;14.65;;;;;;;3.23;70.15;101592.75;4995786;28;20401;-81
2022/01/25 00:56:44;;;;;;;40.05;16.30;;;;;;;3.23;69.98;101599.72;5022323;28;20044;-81
2022/01/25 00:59:20;;;;;;;42.80;17.13;;;;;;;3.22;70.18;101603.28;5051099;28;20040;-81
2022/01/25 01:01:49;;;;;;;40.78;15.65;;;;;;;3.20;69.79;101607.69;5046656;28;20384;-82
2022/01/25 01:04:17;;;;;;;36.60;13.98;;;;;;;3.18;69.78;101592.00;5050335;28;20051;-82
2022/01/25 01:06:46;;;;;;;42.00;15.60;;;;;;;3.18;69.98;101592.00;5052343;28;20049;-82
2022/01/25 01:09:14;;;;;;;39.55;14.73;;;;;;;3.17;70.27;101595.53;5032287;28;20049;-82
2022/01/25 01:12:08;;;;;;;43.80;16.80;;;;;;;3.16;70.23;101587.72;5022727;28;20044;-81
2022/01/25 01:30:58;;;;;;;40.90;14.32;;;;;;;3.00;69.90;101621.41;5037990;28;20503;-81
2022/01/25 01:43:44;;;;;;;45.85;18.75;;;;;;;2.92;69.79;101619.00;5035990;28;20053;-81
2022/01/25 01:48:49;;;;;;;66.25;20.92;;;;;;;2.90;69.86;101618.19;5035887;28;20500;-82
2022/01/25 01:51:25;;;;;;;63.10;21.55;;;;;;;2.89;69.66;101613.84;5011144;28;20041;-82
2022/01/25 01:53:54;;;;;;;60.50;19.75;;;;;;;2.90;70.08;101612.06;5044011;28;20049;-81
2022/01/25 01:56:21;;;;;;;50.97;18.92;;;;;;;2.88;69.81;101606.88;5050244;28;20404;-82
2022/01/25 01:58:50;;;;;;;47.03;16.10;;;;;;;2.87;69.89;101605.13;5049378;28;20064;-82
2022/01/25 02:01:26;;;;;;;37.67;15.20;;;;;;;2.84;69.67;101592.09;5051211;28;20119;-82
2022/01/25 02:03:54;;;;;;;34.83;12.57;;;;;;;2.83;69.57;101596.50;5049486;28;20048;-81
2022/01/25 02:06:21;;;;;;;31.92;13.23;;;;;;;2.81;69.67;101587.81;5048736;28;20052;-82
2022/01/25 02:08:48;;;;;;;46.45;14.20;;;;;;;2.80;69.44;101582.63;5047321;28;20053;-82
2022/01/25 02:11:15;;;;;;;35.92;13.52;;;;;;;2.76;69.67;101584.47;5030355;28;20052;-81
2022/01/25 02:13:42;;;;;;;72.53;22.02;;;;;;;2.75;69.33;101590.63;5030242;28;20041;-81
2022/01/25 02:16:19;;;;;;;73.30;23.42;;;;;;;2.72;69.44;101587.19;5046803;28;20049;-82
2022/01/25 02:24:19;;;;;;;61.95;21.95;;;;;;;2.65;69.95;101585.69;5046688;28;20045;-82
2022/01/25 02:26:46;;;;;;;48.90;19.75;;;;;;;2.64;69.82;101578.69;5049635;28;20048;-82
2022/01/25 02:29:13;;;;;;;46.58;17.00;;;;;;;2.64;70.01;101568.19;5036691;28;20063;-82
2022/01/25 02:31:40;;;;;;;45.70;18.30;;;;;;;2.65;69.72;101567.31;5036379;28;20055;-81
2022/01/25 02:34:07;;;;;;;57.47;19.88;;;;;;;2.63;69.65;101563.88;5048256;28;20056;-81
2022/01/25 02:36:34;;;;;;;63.42;21.40;;;;;;;2.61;69.85;101563.91;5048311;28;20459;-82
2022/01/25 02:39:02;;;;;;;53.97;20.80;;;;;;;2.58;69.77;101571.84;5023872;28;20377;-82
2022/01/25 02:41:29;;;;;;;74.43;21.45;;;;;;;2.55;69.68;101569.31;5052565;28;20041;-82
2022/01/25 02:43:58;;;;;;;69.93;20.83;;;;;;;2.53;69.90;101571.13;5031985;28;20051;-82
2022/01/25 02:49:02;;;;;;;55.20;17.13;;;;;;;2.44;69.80;101573.97;5028043;28;20508;-82
2022/01/25 02:51:37;;;;;;;61.25;16.73;;;;;;;2.42;69.75;101583.66;5029936;28;20041;-81
2022/01/25 02:54:07;;;;;;;54.72;16.58;;;;;;;2.37;69.80;101581.16;5023805;28;20052;-82
2022/01/25 02:56:36;;;;;;;51.08;16.42;;;;;;;2.35;70.14;101575.09;5018017;28;20047;-82
2022/01/25 02:59:04;;;;;;;41.63;15.15;;;;;;;2.37;70.05;101574.16;5022939;28;20041;-81
2022/01/25 03:01:32;;;;;;;48.38;14.85;;;;;;;2.37;70.14;101573.31;5035507;28;20045;-78
2022/01/25 03:03:59;;;;;;;40.88;17.17;;;;;;;2.34;70.34;101570.75;5015540;28;20051;-78
2022/01/25 03:06:26;;;;;;;39.80;15.50;;;;;;;2.35;70.26;101572.47;5031073;28;20044;-78
2022/01/25 03:08:53;;;;;;;45.95;17.05;;;;;;;2.33;70.19;101569.88;5049273;28;20051;-78
2022/01/25 03:11:22;;;;;;;35.75;15.45;;;;;;;2.32;70.15;101567.31;5053623;28;20041;-78
2022/01/25 03:14:21;;;;;;;37.85;15.98;;;;;;;2.24;70.07;101569.25;5010873;28;20040;-79
2022/01/25 03:22:05;;;;;;;42.10;16.33;;;;;;;2.25;70.00;101571.00;5025946;28;20419;-78
2022/01/25 03:24:33;;;;;;;37.85;14.88;;;;;;;2.24;69.96;101564.91;5029359;28;20040;-78
2022/01/25 03:27:27;;;;;;;35.08;14.48;;;;;;;2.15;69.92;101567.75;5029623;28;20049;-79
2022/01/25 03:29:53;;;;;;;;;;;;;;;2.07;70.05;101572.34;5018951;28;20080;-78
2022/01/25 03:32:20;;;;;;;41.03;14.43;;;;;;;2.14;70.04;101568.66;5015142;28;19938;-78
2022/01/25 03:34:47;;;;;;;45.47;15.07;;;;;;;2.13;70.10;101562.53;5048554;28;20051;-78
2022/01/25 03:37:13;;;;;;;40.30;15.23;;;;;;;2.12;69.77;101565.22;5054555;28;20606;-79
2022/01/25 03:39:40;;;;;;;46.13;13.75;;;;;;;2.12;69.80;101579.16;5054000;28;20052;-79
2022/01/25 03:42:09;;;;;;;41.15;14.52;;;;;;;2.09;70.01;101571.41;5057534;28;20546;-78
2022/01/25 03:44:36;;;;;;;51.38;15.68;;;;;;;2.07;70.15;101578.44;5048376;28;20045;-78
2022/01/25 03:47:08;;;;;;;41.55;14.40;;;;;;;2.09;70.18;101570.53;5046714;28;20048;-78
2022/01/25 03:49:50;;;;;;;56.53;15.63;;;;;;;2.07;69.98;101569.72;5038927;28;20400;-78
2022/01/25 03:52:33;;;;;;;39.72;13.75;;;;;;;2.04;70.40;101564.56;5008968;28;20049;-78
2022/01/25 03:55:00;;;;;;;40.85;13.10;;;;;;;2.04;70.14;101572.41;5007289;28;20051;-78
2022/01/25 03:57:26;;;;;;;41.92;14.35;;;;;;;2.03;70.34;101574.16;5027257;28;20094;-78
2022/01/25 03:59:56;;;;;;;34.55;12.75;;;;;;;2.05;70.36;101576.75;5051176;28;20055;-79
2022/01/25 04:02:25;;;;;;;55.80;12.75;;;;;;;2.04;70.32;101567.19;5039575;28;20056;-79
2022/01/25 04:04:51;;;;;;;42.95;12.15;;;;;;;2.02;70.23;101569.81;5045971;28;20049;-78
2022/01/25 04:07:27;;;;;;;37.00;12.10;;;;;;;2.02;70.34;101582.94;5044919;28;20049;-78
2022/01/25 04:09:54;;;;;;;33.80;12.07;;;;;;;2.00;70.47;101576.00;5021206;28;20119;-78
2022/01/25 04:12:20;;;;;;;33.42;12.88;;;;;;;1.99;70.51;101577.78;5041855;28;20421;-78
2022/01/25 04:14:48;;;;;;;41.92;13.20;;;;;;;1.97;70.49;101584.81;5032984;28;20037;-78
2022/01/25 04:17:45;;;;;;;36.33;11.35;;;;;;;1.89;70.41;101576.28;5047532;28;20403;-77
2022/01/25 04:25:27;;;;;;;37.35;13.50;;;;;;;1.92;70.31;101578.81;5044704;28;20058;-78
2022/01/25 04:27:54;;;;;;;33.03;12.32;;;;;;;1.92;70.67;101571.81;5041744;28;20049;-78
2022/01/25 04:30:21;;;;;;;31.25;12.15;;;;;;;1.93;70.54;101570.94;5030208;28;20041;-78
2022/01/25 04:32:54;;;;;;;36.10;12.70;;;;;;;1.92;70.47;101561.31;5040179;28;20045;-79
2022/01/25 04:49:28;;;;;;;40.55;12.27;;;;;;;1.84;70.38;101542.31;4918115;28;21557;-78
2022/01/25 04:52:05;;;;;;;50.30;13.10;;;;;;;1.84;70.73;101538.84;5020876;28;20040;-78
2022/01/25 05:03:09;;;;;;;38.67;11.50;;;;;;;1.71;70.71;101541.78;5042973;28;20097;-78
2022/01/25 05:05:29;;;;;;;;;;;;;;;1.57;70.98;101549.09;5008529;28;20484;-78
2022/01/25 05:08:20;;;;;;;35.67;11.23;;;;;;;1.63;70.81;101545.44;5023540;28;20368;-78
2022/01/25 05:10:58;;;;;;;39.80;11.45;;;;;;;1.63;70.56;101554.19;5022341;28;20044;-78
2022/01/25 05:16:53;;;;;;;40.72;11.07;;;;;;;1.61;70.88;101542.03;5001100;28;20058;-81
2022/01/25 05:22:54;;;;;;;60.92;13.13;;;;;;;1.46;71.05;101544.09;5040585;28;20392;-78
2022/01/25 05:25:20;;;;;;;38.10;12.63;;;;;;;1.56;70.74;101546.53;4961156;28;20044;-78
2022/01/25 05:27:48;;;;;;;48.20;12.38;;;;;;;1.57;70.86;101545.63;5044463;28;20072;-78
2022/01/25 05:30:15;;;;;;;55.08;13.48;;;;;;;1.58;70.88;101544.69;5047481;28;20063;-79
2022/01/25 05:32:41;;;;;;;38.60;12.48;;;;;;;1.58;70.96;101549.94;5039224;28;20048;-78
2022/01/25 05:35:08;;;;;;;38.13;11.32;;;;;;;1.59;71.10;101549.06;5042404;28;20041;-78
2022/01/25 05:37:41;;;;;;;31.70;11.00;;;;;;;1.56;71.21;101555.22;5028368;28;20036;-79
2022/01/25 05:40:14;;;;;;;41.88;12.45;;;;;;;1.56;71.26;101555.22;5017898;28;20048;-78
2022/01/25 05:42:50;;;;;;;;;;;;;;;1.45;71.57;101559.84;5052921;28;20471;-79
2022/01/25 05:45:20;;;;;;;35.50;12.00;;;;;;;1.52;71.26;101562.28;5009857;28;20043;-81
2022/01/25 05:48:17;;;;;;;33.17;12.43;;;;;;;1.46;71.37;101561.56;5040784;28;20055;-79
2022/01/25 05:50:43;;;;;;;36.38;11.63;;;;;;;1.51;71.28;101562.34;5009005;28;20048;-79
2022/01/25 05:53:10;;;;;;;36.70;11.75;;;;;;;1.53;71.48;101565.78;5054980;28;20056;-79
2022/01/25 05:55:37;;;;;;;38.75;11.63;;;;;;;1.53;71.39;101557.94;5051678;28;21010;-79
2022/01/25 05:58:04;;;;;;;40.63;11.48;;;;;;;1.54;71.57;101557.03;5032012;28;20052;-79
2022/01/25 06:00:30;;;;;;;36.28;11.30;;;;;;;1.55;71.36;101557.88;5043331;28;20077;-80
2022/01/25 06:02:57;;;;;;;33.20;11.60;;;;;;;1.53;71.71;101568.41;5031476;28;20056;-79
2022/01/25 06:05:25;;;;;;;39.10;12.73;;;;;;;1.56;71.68;101567.47;5056199;28;20041;-79
2022/01/25 06:07:52;;;;;;;26.23;11.63;;;;;;;1.56;71.70;101576.19;4999425;28;20361;-80
2022/01/25 06:10:18;;;;;;;35.42;11.45;;;;;;;1.56;71.94;101570.94;5034260;28;20123;-80
2022/01/25 06:12:46;;;;;;;34.20;11.30;;;;;;;1.57;71.96;101567.41;5035419;28;20041;-80
2022/01/25 06:15:19;;;;;;;35.53;12.05;;;;;;;1.54;71.95;101580.59;5023366;28;20040;-80
2022/01/25 06:17:47;;;;;;;29.58;12.70;;;;;;;1.57;71.83;101575.28;5055983;28;20099;-80
2022/01/25 06:20:13;;;;;;;40.17;16.48;;;;;;;1.57;71.85;101575.28;5039174;28;20041;-80
2022/01/25 06:22:40;;;;;;;36.58;14.40;;;;;;;1.59;71.79;101570.88;5053814;28;20056;-78
2022/01/25 06:25:10;;;;;;;31.33;13.48;;;;;;;1.59;71.79;101572.63;5055687;28;20040;-79
2022/01/25 06:28:28;;;;;;;36.15;14.02;;;;;;;1.51;71.94;101571.03;5048551;28;20044;-79
2022/01/25 06:35:29;;;;;;;37.40;14.52;;;;;;;1.51;71.60;101580.66;5041299;28;20043;-78
2022/01/25 06:37:56;;;;;;;39.67;16.50;;;;;;;1.50;71.63;101577.19;5034664;28;20040;-77
2022/01/25 06:40:24;;;;;;;44.83;16.42;;;;;;;1.52;71.63;101571.91;5039032;28;20211;-78
2022/01/25 06:42:51;;;;;;;53.55;17.20;;;;;;;1.51;71.72;101578.03;5004163;28;20107;-78
2022/01/25 06:45:20;;;;;;;54.25;18.73;;;;;;;1.52;71.82;101582.38;5041258;28;20134;-78
2022/01/25 06:47:48;;;;;;;55.47;17.67;;;;;;;1.51;71.72;101581.50;5054416;28;20045;-78
2022/01/25 06:50:17;;;;;;;62.65;17.60;;;;;;;1.48;71.85;101584.22;5017929;28;20167;-78
2022/01/25 06:52:44;;;;;;;51.22;17.70;;;;;;;1.48;71.68;101594.69;5030093;28;20095;-77
2022/01/25 06:55:45;;;;;;;46.15;16.35;;;;;;;1.39;71.67;101597.50;5023592;28;20103;-77
2022/01/25 06:58:12;;;;;;;42.10;15.75;;;;;;;1.45;72.01;101596.50;4965581;28;20132;-77
2022/01/25 07:00:39;;;;;;;49.83;16.30;;;;;;;1.45;71.65;101592.13;5020478;28;20045;-77
2022/01/25 07:03:08;;;;;;;39.85;14.45;;;;;;;1.46;71.61;101587.75;5037293;28;20044;-77
2022/01/25 07:05:35;;;;;;;50.78;16.90;;;;;;;1.47;71.86;101587.69;5025166;28;20043;-78
2022/01/25 07:08:03;;;;;;;43.13;14.18;;;;;;;1.46;71.66;101590.38;5036192;28;20050;-77
2022/01/25 07:10:30;;;;;;;45.45;14.90;;;;;;;1.44;71.40;101592.16;5032118;28;20052;-77
2022/01/25 07:12:56;;;;;;;55.08;15.65;;;;;;;1.42;71.65;101604.41;5048071;28;20126;-78
2022/01/25 07:15:23;;;;;;;61.75;15.38;;;;;;;1.40;71.80;101611.44;5024874;28;20384;-79
2022/01/25 07:17:50;;;;;;;46.85;14.93;;;;;;;1.39;71.58;101609.72;5036919;28;20051;-78
2022/01/25 07:20:17;;;;;;;62.58;15.95;;;;;;;1.36;71.73;101613.28;5048732;28;20053;-78
2022/01/25 07:22:44;;;;;;;45.40;14.82;;;;;;;1.36;72.08;101613.28;5056911;28;20120;-78
2022/01/25 07:25:11;;;;;;;60.60;16.48;;;;;;;1.37;71.80;101614.97;5051011;28;20400;-79
2022/01/25 07:28:29;;;;;;;42.67;15.27;;;;;;;1.28;72.03;101610.81;5060132;28;20048;-79
2022/01/25 07:34:45;;;;;;;40.85;14.13;;;;;;;1.30;71.85;101601.19;4975817;28;20124;-78
2022/01/25 07:37:15;;;;;;;43.90;15.30;;;;;;;1.32;72.01;101601.13;5051097;28;20076;-79
2022/01/25 07:44:41;;;;;;;48.38;18.58;;;;;;;1.28;71.65;101613.44;5046739;28;20036;-79
2022/01/25 07:47:08;;;;;;;54.20;19.40;;;;;;;1.29;71.63;101604.69;5025079;28;20060;-79
2022/01/25 07:49:40;;;;;;;56.45;21.52;;;;;;;1.29;71.58;101609.06;5045789;28;20095;-78
2022/01/25 07:52:12;;;;;;;57.47;21.40;;;;;;;1.29;71.61;101606.44;5028376;28;20527;-78
2022/01/25 07:54:41;;;;;;;49.33;17.65;;;;;;;1.28;71.86;101610.81;5037966;28;20479;-77
2022/01/25 07:57:08;;;;;;;55.45;18.20;;;;;;;1.28;71.79;101607.34;5055731;28;20098;-79
2022/01/25 07:59:36;;;;;;;39.40;15.75;;;;;;;1.28;71.68;101609.97;5052547;28;20112;-79
2022/01/25 08:02:03;;;;;;;51.90;16.88;;;;;;;1.30;71.73;101614.28;5051882;28;20068;-78
2022/01/25 08:04:42;;;;;;;62.97;17.70;;;;;;;1.29;71.76;101617.75;5040546;28;20055;-78
2022/01/25 08:07:14;;;;;;;41.67;16.50;;;;;;;1.29;72.01;101623.00;5050907;28;20048;-77
2022/01/25 08:09:52;;;;;;;48.30;17.50;;;;;;;1.29;72.03;101622.13;5051630;28;20056;-78
2022/01/25 08:12:25;;;;;;;43.75;16.00;;;;;;;1.26;71.61;101614.38;5025239;28;20045;-78
2022/01/25 08:15:08;;;;;;;50.63;18.00;;;;;;;1.26;71.92;101609.13;5018620;28;20037;-79
2022/01/25 08:17:50;;;;;;;57.70;20.05;;;;;;;1.26;71.86;101607.38;5042972;28;20142;-79
2022/01/25 08:20:31;;;;;;;47.70;19.00;;;;;;;1.27;71.97;101619.56;5003638;28;20051;-79
2022/01/25 08:22:59;;;;;;;53.47;17.15;;;;;;;1.28;71.99;101620.44;5019609;28;20093;-77
2022/01/25 08:25:35;;;;;;;49.53;17.92;;;;;;;1.27;71.88;101619.56;5010951;28;20480;-78
2022/01/25 08:28:16;;;;;;;50.95;18.67;;;;;;;1.26;71.99;101617.84;5013217;28;20408;-77
2022/01/25 08:31:02;;;;;;;47.88;16.30;;;;;;;1.26;71.98;101616.97;5032226;28;20049;-78
2022/01/25 08:33:36;;;;;;;45.15;16.50;;;;;;;1.27;72.13;101623.91;5023630;28;20055;-78
2022/01/25 08:36:12;;;;;;;49.50;17.67;;;;;;;1.27;72.11;101622.19;5041063;28;20045;-77
2022/01/25 08:38:55;;;;;;;44.33;16.52;;;;;;;1.27;72.07;101629.16;5042718;28;20122;-78
2022/01/25 08:41:44;;;;;;;;;;;;;;;1.15;72.24;101618.97;4937703;28;20460;-78
2022/01/25 08:44:31;;;;;;;44.45;15.77;;;;;;;1.24;72.12;101627.47;4946119;28;19925;-78
2022/01/25 08:47:14;;;;;;;49.33;17.77;;;;;;;1.26;72.28;101624.81;4950622;28;20053;-77
2022/01/25 08:50:06;;;;;;;57.55;19.13;;;;;;;1.24;72.23;101618.75;4919932;28;20064;-78
2022/01/25 08:52:56;;;;;;;59.80;19.73;;;;;;;1.26;72.02;101624.81;4838818;29;20052;-77
2022/01/25 08:55:30;;;;;;;57.83;17.85;;;;;;;1.27;72.08;101621.31;4863598;29;20123;-77
2022/01/25 08:58:04;;;;;;;54.22;18.27;;;;;;;1.28;72.19;101620.44;4891617;29;20043;-77
2022/01/25 09:00:30;;;;;;;68.45;19.17;;;;;;;1.30;72.41;101626.50;4893287;29;20506;-78
2022/01/25 09:03:00;;;;;;;64.60;20.27;;;;;;;1.32;72.39;101635.16;4891692;29;21924;-77
2022/01/25 09:05:27;;;;;;;71.28;20.40;;;;;;;1.32;72.46;101629.91;4891103;29;20058;-78
2022/01/25 09:07:57;;;;;;;67.05;21.25;;;;;;;1.33;72.41;101626.44;4878861;29;20126;-78
2022/01/25 09:10:25;;;;;;;65.38;21.17;;;;;;;1.34;72.36;101630.75;4893698;29;20126;-77
2022/01/25 09:12:54;;;;;;;65.80;20.17;;;;;;;1.35;72.57;101635.13;4893347;29;20050;-77
2022/01/25 09:15:27;;;;;;;56.95;21.48;;;;;;;1.32;72.20;101627.31;4897932;29;20099;-77
2022/01/25 09:17:56;;;;;;;67.22;21.08;;;;;;;1.35;72.72;101629.88;4900573;28;20048;-77
2022/01/25 09:20:23;;;;;;;66.20;20.80;;;;;;;1.36;72.65;101628.97;4978960;28;20521;-77
2022/01/25 09:22:50;;;;;;;74.20;20.15;;;;;;;1.37;72.43;101628.06;4980274;28;20055;-78
2022/01/25 09:25:29;;;;;;;72.63;20.65;;;;;;;1.37;72.90;101627.22;5046538;28;20048;-77
2022/01/25 09:28:00;;;;;;;69.40;20.58;;;;;;;1.37;72.53;101632.44;5046256;28;20087;-77
2022/01/25 09:30:28;;;;;;;59.83;20.80;;;;;;;1.39;72.73;101630.66;5035416;28;20429;-78
2022/01/25 09:36:42;;;;;;;63.05;21.17;;;;;;;1.36;72.80;101630.72;5018846;28;20455;-78
2022/01/25 09:39:17;;;;;;;61.20;19.63;;;;;;;1.36;72.76;101630.72;5019612;28;20044;-78
2022/01/25 09:41:44;;;;;;;63.55;20.27;;;;;;;1.38;73.19;101628.94;5054973;28;20037;-78
2022/01/25 09:47:53;;;;;;;71.85;22.23;;;;;;;1.37;73.24;101630.69;4991852;28;20051;-77
2022/01/25 09:51:14;;;;;;;56.00;19.73;;;;;;;1.33;73.17;101636.03;5067254;28;20103;-76
2022/01/25 09:53:41;;;;;;;62.30;20.10;;;;;;;1.39;73.12;101642.00;4979612;28;20097;-77
2022/01/25 09:56:08;;;;;;;56.08;20.25;;;;;;;1.41;73.28;101628.88;5052543;28;20063;-77
2022/01/25 09:58:36;;;;;;;56.30;19.95;;;;;;;1.42;73.26;101628.81;5025770;28;20041;-77
2022/01/25 10:01:37;;;;;;;55.30;17.75;;;;;;;1.38;73.33;101624.56;5019330;28;20565;-77
2022/01/25 10:04:37;;;;;;;60.50;20.63;;;;;;;1.38;73.57;101626.34;5017337;28;20040;-77
2022/01/25 10:08:00;;;;;;;59.05;19.00;;;;;;;1.39;73.84;101633.28;4997664;28;20045;-78
2022/01/25 10:10:28;;;;;;;62.88;23.38;;;;;;;1.46;73.75;101629.63;4974847;28;20063;-77
2022/01/25 10:22:25;;;;;;;78.78;23.67;;;;;;;1.44;73.89;101626.19;5052407;28;20105;-77
2022/01/25 10:24:52;;;;;;;87.30;26.27;;;;;;;1.47;73.81;101628.72;5049135;28;20054;-77
2022/01/25 10:27:59;;;;;;;77.90;23.83;;;;;;;1.45;73.88;101620.94;5061788;28;20071;-77
2022/01/25 10:30:12;;;;;;;71.20;23.13;;;;;;;1.47;74.07;101618.25;5042079;28;20131;-77
2022/01/25 10:32:39;;;;;;;97.97;25.95;;;;;;;1.50;73.88;101615.56;5046095;28;20055;-77
2022/01/25 10:35:16;;;;;;;101.25;26.15;;;;;;;1.48;74.42;101625.25;5012954;28;20498;-77
2022/01/25 10:42:01;;;;;;;86.65;25.42;;;;;;;1.44;74.66;101615.72;5015810;28;21033;-77
2022/01/25 10:45:09;;;;;;;80.72;25.50;;;;;;;1.46;74.84;101621.78;5004287;28;20052;-77
2022/01/25 10:47:42;;;;;;;93.25;26.33;;;;;;;1.50;74.41;101626.94;4990125;28;20055;-77
2022/01/25 10:50:34;;;;;;;96.25;24.77;;;;;;;1.46;74.68;101621.78;5055754;28;20434;-77
2022/01/25 10:53:21;;;;;;;99.57;27.48;;;;;;;1.50;74.80;101624.31;4988609;28;20065;-77
2022/01/25 10:55:54;;;;;;;92.25;25.27;;;;;;;1.56;74.43;101623.31;5035256;28;20566;-77
2022/01/25 10:58:25;;;;;;;93.35;25.42;;;;;;;1.55;74.89;101621.56;5011739;28;20045;-76
2022/01/25 11:00:52;;;;;;;95.32;25.58;;;;;;;1.57;74.90;101617.16;5027305;28;20120;-77
2022/01/25 11:03:32;;;;;;;90.15;27.67;;;;;;;1.54;75.14;101622.47;5044277;28;20068;-78
2022/01/25 11:06:11;;;;;;;98.15;27.63;;;;;;;1.54;74.92;101619.00;5041089;28;20040;-78
2022/01/25 11:08:38;;;;;;;101.18;28.23;;;;;;;1.61;74.94;101620.59;5030037;28;20056;-78
2022/01/25 11:11:09;;;;;;;104.30;27.35;;;;;;;1.61;75.00;101615.34;5028811;28;20040;-77
2022/01/25 11:13:41;;;;;;;106.45;27.48;;;;;;;1.62;75.18;101614.44;5042418;28;20075;-77
2022/01/25 11:16:10;;;;;;;104.15;27.75;;;;;;;1.64;74.91;101618.75;5028070;28;20500;-78
2022/01/25 11:18:38;;;;;;;109.53;28.42;;;;;;;1.69;76.00;101614.25;5044006;28;20561;-77
2022/01/25 11:36:59;;;;;;;147.98;36.85;;;;;;;2.11;76.50;101618.50;5046873;27;20703;-86
2022/01/25 11:39:27;;;;;;;129.48;33.55;;;;;;;1.99;76.88;101605.75;4999977;28;20062;-86
2022/01/25 11:42:08;;;;;;;124.70;31.08;;;;;;;1.89;76.69;101610.34;5014951;28;20049;-85
2022/01/25 11:44:35;;;;;;;124.30;31.45;;;;;;;1.91;77.06;101608.53;4985098;28;20270;-86
2022/01/25 11:47:11;;;;;;;121.32;31.50;;;;;;;1.87;77.05;101617.34;5011467;28;20199;-86
2022/01/25 11:49:50;;;;;;;129.23;32.70;;;;;;;1.97;79.39;101612.75;5007708;23;20037;-79
2022/01/25 11:52:17;;;;;;;132.73;31.75;;;;;;;2.00;77.99;101610.91;5017203;28;20046;-81
2022/01/25 11:54:45;;;;;;;149.90;33.42;;;;;;;1.99;77.36;101613.59;5015629;28;20501;-81
2022/01/25 11:57:17;;;;;;;162.15;36.85;;;;;;;1.95;77.05;101615.41;5017624;28;20045;-82
2022/01/25 11:59:56;;;;;;;140.02;33.65;;;;;;;1.85;77.11;101601.66;5030432;28;20050;-81
2022/01/25 12:02:44;;;;;;;127.47;33.50;;;;;;;1.84;77.40;101606.97;5011844;28;20049;-81
2022/01/25 12:05:14;;;;;;;133.10;31.15;;;;;;;1.88;77.05;101603.34;5005301;28;20059;-82
2022/01/25 12:08:04;;;;;;;119.50;31.40;;;;;;;1.81;77.38;101602.66;5014980;28;20045;-82
2022/01/25 12:10:37;;;;;;;112.35;30.92;;;;;;;1.84;76.99;101599.97;4952946;28;20137;-82
2022/01/25 12:13:15;;;;;;;111.93;30.27;;;;;;;1.81;77.10;101599.19;5008286;28;20136;-82
2022/01/25 12:15:45;;;;;;;107.07;27.98;;;;;;;1.81;76.80;101593.94;5010986;28;20050;-82
2022/01/25 12:18:49;;;;;;;124.00;31.52;;;;;;;1.74;77.30;101587.97;5010323;28;20095;-81
2022/01/25 12:21:37;;;;;;;;;;;;;;;1.67;77.58;101587.25;4968860;28;20045;-82
2022/01/25 12:24:34;;;;;;;103.00;26.15;;;;;;;1.71;77.36;101588.06;4994857;28;19921;-82
2022/01/25 12:29:40;;;;;;;108.47;29.23;;;;;;;1.80;76.90;101587.81;5010871;28;20562;-82
2022/01/25 12:32:36;;;;;;;112.63;30.10;;;;;;;1.74;77.36;101585.34;5028289;28;20046;-83
2022/01/25 12:35:13;;;;;;;119.97;33.17;;;;;;;1.78;77.55;101580.91;4982196;28;20048;-82
2022/01/25 12:37:44;;;;;;;124.55;30.65;;;;;;;1.80;77.24;101584.34;5016968;28;20053;-82
2022/01/25 12:40:26;;;;;;;141.07;36.00;;;;;;;1.75;77.34;101589.69;4998743;28;20069;-83
2022/01/25 12:43:00;;;;;;;132.05;32.78;;;;;;;1.75;77.93;101581.81;5027202;28;20077;-83
2022/01/25 12:45:33;;;;;;;112.20;31.20;;;;;;;1.74;77.48;101569.66;5000200;28;20433;-81
2022/01/25 12:48:04;;;;;;;118.43;31.40;;;;;;;1.74;77.63;101575.75;5028286;28;22920;-82
2022/01/25 12:50:31;;;;;;;129.25;32.10;;;;;;;1.75;77.41;101573.97;4999360;28;20493;-81
2022/01/25 12:52:59;;;;;;;128.05;30.88;;;;;;;1.74;77.31;101573.13;4996620;28;20648;-79
2022/01/25 12:55:29;;;;;;;123.82;30.92;;;;;;;1.76;77.35;101572.25;4996692;28;20133;-79
2022/01/25 12:57:56;;;;;;;107.38;29.33;;;;;;;1.76;77.37;101578.34;4983541;28;20081;-82
2022/01/25 13:00:31;;;;;;;106.20;29.52;;;;;;;1.77;77.33;101574.81;5000828;28;20132;-82
2022/01/25 13:03:21;;;;;;;98.68;26.85;;;;;;;1.76;77.30;101572.25;4999412;28;20077;-79
2022/01/25 13:05:53;;;;;;;94.95;27.88;;;;;;;1.81;77.13;101573.00;4980760;28;20053;-80
2022/01/25 13:08:43;;;;;;;111.35;31.63;;;;;;;1.76;78.10;101573.09;5001905;28;20057;-80
2022/01/25 13:11:20;;;;;;;106.90;31.25;;;;;;;1.78;77.13;101571.31;4986285;28;20412;-80
2022/01/25 13:16:52;;;;;;;102.18;28.10;;;;;;;1.81;77.19;101573.84;4893974;28;20042;-79
2022/01/25 13:19:27;;;;;;;112.65;30.02;;;;;;;1.82;77.07;101577.31;4971250;28;20034;-80
2022/01/25 13:21:59;;;;;;;115.20;32.22;;;;;;;1.84;77.37;101572.91;5000501;28;20123;-80
2022/01/25 13:24:37;;;;;;;118.85;29.42;;;;;;;1.84;77.22;101575.53;4986987;28;20038;-80
2022/01/25 13:27:10;;;;;;;115.50;31.30;;;;;;;1.83;77.52;101574.69;5002866;28;20045;-80
2022/01/25 13:32:42;;;;;;;;;;;;;;;1.72;77.97;101574.06;4946682;28;20049;-80
2022/01/25 13:38:07;;;;;;;100.47;29.48;;;;;;;1.75;77.30;101566.13;5001568;28;20484;-80
2022/01/25 13:46:30;;;;;;;107.22;30.40;;;;;;;1.82;77.44;101554.59;4984912;28;20073;-78
2022/01/25 13:49:03;;;;;;;103.55;29.00;;;;;;;1.82;77.18;101549.34;5005408;28;20405;-82
2022/01/25 13:51:45;;;;;;;93.15;27.27;;;;;;;1.81;77.44;101547.66;4962972;28;20460;-82
2022/01/25 13:54:24;;;;;;;102.20;28.67;;;;;;;1.82;77.43;101543.28;4965396;28;20049;-81
2022/01/25 13:56:51;;;;;;;103.05;28.88;;;;;;;1.85;77.51;101537.94;4977390;28;20043;-83
2022/01/25 13:59:21;;;;;;;90.38;26.23;;;;;;;1.85;77.47;101540.56;4979415;28;20046;-81
2022/01/25 14:01:48;;;;;;;103.18;27.90;;;;;;;1.86;77.55;101542.31;4981666;28;20045;-81
2022/01/25 14:04:25;;;;;;;96.38;28.77;;;;;;;1.82;77.53;101541.50;4979894;28;20046;-79
2022/01/25 14:07:00;;;;;;;113.53;30.63;;;;;;;1.82;77.55;101551.97;4974147;28;20054;-80
2022/01/25 14:09:36;;;;;;;81.97;20.35;;;;;;;1.81;77.54;101538.94;4947533;28;20046;-80
2022/01/25 14:23:22;;;;;;;103.45;29.38;;;;;;;1.77;77.71;101540.75;4945075;28;20042;-80
2022/01/25 14:26:17;;;;;;;116.22;30.25;;;;;;;1.72;78.20;101535.63;4932854;28;20089;-81
2022/01/25 14:28:54;;;;;;;91.07;26.33;;;;;;;1.92;80.57;101535.13;4938181;28;20050;-79
2022/01/25 14:31:24;;;;;;;78.88;21.48;;;;;;;1.97;78.54;101531.56;4948076;28;20088;-80
2022/01/25 14:33:54;;;;;;;88.72;25.30;;;;;;;1.97;78.32;101534.16;4981799;28;20139;-84
2022/01/25 14:36:26;;;;;;;96.75;28.13;;;;;;;1.92;78.12;101532.50;4964056;28;20077;-82
2022/01/25 14:38:54;;;;;;;102.75;27.92;;;;;;;1.93;77.94;101534.25;4969389;28;20074;-80
2022/01/25 14:41:28;;;;;;;113.47;30.73;;;;;;;1.92;77.88;101537.75;4953710;28;20058;-80
2022/01/25 14:44:03;;;;;;;105.65;26.08;;;;;;;2.02;81.60;101532.28;4921815;28;20405;-80
2022/01/25 14:46:34;;;;;;;105.43;26.08;;;;;;;2.01;79.09;101538.41;4977172;28;20043;-80
2022/01/25 14:49:08;;;;;;;112.07;30.27;;;;;;;1.96;78.36;101533.31;4970135;28;20049;-79
2022/01/25 14:51:44;;;;;;;102.75;28.30;;;;;;;1.94;78.24;101535.97;4998558;28;20042;-80